Terminal Aerodrome Forecast
Issued by NWS

Home | Current Version | Previous Version | Text Only | Print | Product List | Glossary On
Versions: 1 2 3 4 5 6 7 8 9 10 11 12 13 14 15 16 17 18 19 20 21 22 23 24 25 26
972
FTUS42 KJAX 291856 AAA
TAFVQQ
TAF AMD
KVQQ 291856Z 2919/3018 28006KT P6SM SCT045 SCT250
     FM292200 13009KT P6SM SCT050 SCT250
     FM300300 24006KT P6SM SCT250
     FM300800 00000KT 3SM BR SCT004
     FM301300 30006KT P6SM SCT025 SCT250=

USA.gov is the U.S. government's official web portal to all federal, state and local government web resources and services.